Bains, Louisiana
Current Conditions -  °F | °C
As of 11:35 AM on Wednesday 26 Nov 2014 (Local Time) from KHZR Reporting Station
Clear Clear  
Wind Chill: 65°   Ceiling: Unl
Heat Index: 65°   Visibility: 10mi
Dew Point: 38°   Wind: 13mph
Humidity: 38%   Direction: 220°SW
Pressure: 30.23"   Gusts: 24mph
Location:  30.8804°N, 91.4243°W
Report Text: KHZR 261735Z AUTO 22011G21KT 10SM CLR 18/03 A3023 RMK AO2 T01810034
Loading
Personal Weather Stations






























Interactive Weather Map New forecast layout! Learn more

10-Day Weather Forecast

Advertisements
Track Severe Weather on mobile